sensor_id;sensor_type;location;lat;lon;timestamp;P1;durP1;ratioP1;P2;durP2;ratioP2
69188;SDS011;56302;52.322;5.926;2023-03-01T00:02:16;6.23;;;3.27;;
69188;SDS011;56302;52.322;5.926;2023-03-01T00:04:42;5.20;;;3.00;;
69188;SDS011;56302;52.322;5.926;2023-03-01T00:07:07;6.10;;;3.13;;
69188;SDS011;56302;52.322;5.926;2023-03-01T00:09:33;6.53;;;3.47;;
69188;SDS011;56302;52.322;5.926;2023-03-01T00:11:58;6.50;;;3.13;;
69188;SDS011;56302;52.322;5.926;2023-03-01T00:14:24;7.53;;;3.40;;
69188;SDS011;56302;52.322;5.926;2023-03-01T00:16:49;7.07;;;3.45;;
69188;SDS011;56302;52.322;5.926;2023-03-01T00:19:15;7.47;;;3.37;;
69188;SDS011;56302;52.322;5.926;2023-03-01T00:21:42;8.30;;;3.30;;
69188;SDS011;56302;52.322;5.926;2023-03-01T00:24:08;7.83;;;3.37;;
69188;SDS011;56302;52.322;5.926;2023-03-01T00:26:34;5.53;;;2.83;;
69188;SDS011;56302;52.322;5.926;2023-03-01T00:29:00;7.43;;;3.27;;
69188;SDS011;56302;52.322;5.926;2023-03-01T00:31:27;6.38;;;3.08;;
69188;SDS011;56302;52.322;5.926;2023-03-01T00:33:58;5.47;;;2.75;;
69188;SDS011;56302;52.322;5.926;2023-03-01T00:36:26;6.90;;;2.77;;
69188;SDS011;56302;52.322;5.926;2023-03-01T00:38:53;5.38;;;3.03;;
69188;SDS011;56302;52.322;5.926;2023-03-01T00:41:19;6.75;;;2.95;;
69188;SDS011;56302;52.322;5.926;2023-03-01T00:43:47;5.50;;;3.03;;
69188;SDS011;56302;52.322;5.926;2023-03-01T00:46:15;6.60;;;2.92;;
69188;SDS011;56302;52.322;5.926;2023-03-01T00:48:42;5.25;;;2.90;;
69188;SDS011;56302;52.322;5.926;2023-03-01T00:51:12;7.03;;;3.37;;
69188;SDS011;56302;52.322;5.926;2023-03-01T00:53:43;5.60;;;2.83;;
69188;SDS011;56302;52.322;5.926;2023-03-01T00:56:09;6.45;;;3.35;;
69188;SDS011;56302;52.322;5.926;2023-03-01T00:58:36;8.05;;;3.45;;
69188;SDS011;56302;52.322;5.926;2023-03-01T01:01:07;8.23;;;3.50;;
69188;SDS011;56302;52.322;5.926;2023-03-01T01:03:41;5.32;;;3.15;;
69188;SDS011;56302;52.322;5.926;2023-03-01T01:06:29;6.07;;;3.25;;
69188;SDS011;56302;52.322;5.926;2023-03-01T01:08:57;5.55;;;2.95;;
69188;SDS011;56302;52.322;5.926;2023-03-01T01:11:23;6.17;;;3.30;;
69188;SDS011;56302;52.322;5.926;2023-03-01T01:13:50;7.03;;;3.83;;
69188;SDS011;56302;52.322;5.926;2023-03-01T01:16:17;6.18;;;3.22;;
69188;SDS011;56302;52.322;5.926;2023-03-01T01:18:43;5.88;;;3.08;;
69188;SDS011;56302;52.322;5.926;2023-03-01T01:21:11;6.22;;;3.00;;
69188;SDS011;56302;52.322;5.926;2023-03-01T01:23:38;6.85;;;3.10;;
69188;SDS011;56302;52.322;5.926;2023-03-01T01:26:11;5.28;;;2.78;;
69188;SDS011;56302;52.322;5.926;2023-03-01T01:28:41;6.47;;;3.30;;
69188;SDS011;56302;52.322;5.926;2023-03-01T01:31:07;5.65;;;2.90;;
69188;SDS011;56302;52.322;5.926;2023-03-01T01:33:32;5.47;;;3.10;;
69188;SDS011;56302;52.322;5.926;2023-03-01T01:35:58;7.38;;;3.10;;
69188;SDS011;56302;52.322;5.926;2023-03-01T01:38:24;5.60;;;2.90;;
69188;SDS011;56302;52.322;5.926;2023-03-01T01:40:50;6.00;;;3.05;;
69188;SDS011;56302;52.322;5.926;2023-03-01T01:43:21;7.57;;;3.10;;
69188;SDS011;56302;52.322;5.926;2023-03-01T01:45:50;6.20;;;3.10;;
69188;SDS011;56302;52.322;5.926;2023-03-01T01:48:22;5.65;;;3.20;;
69188;SDS011;56302;52.322;5.926;2023-03-01T01:50:56;7.15;;;3.25;;
69188;SDS011;56302;52.322;5.926;2023-03-01T01:53:26;6.47;;;3.58;;
69188;SDS011;56302;52.322;5.926;2023-03-01T01:55:56;6.57;;;3.35;;
69188;SDS011;56302;52.322;5.926;2023-03-01T01:58:25;6.20;;;3.30;;
69188;SDS011;56302;52.322;5.926;2023-03-01T02:00:54;5.72;;;3.00;;
69188;SDS011;56302;52.322;5.926;2023-03-01T02:03:22;7.53;;;3.13;;
69188;SDS011;56302;52.322;5.926;2023-03-01T02:05:55;8.48;;;3.55;;
69188;SDS011;56302;52.322;5.926;2023-03-01T02:08:27;6.03;;;3.40;;
69188;SDS011;56302;52.322;5.926;2023-03-01T02:10:55;6.97;;;3.30;;
69188;SDS011;56302;52.322;5.926;2023-03-01T02:13:22;6.35;;;3.03;;
69188;SDS011;56302;52.322;5.926;2023-03-01T02:15:48;7.40;;;3.53;;
69188;SDS011;56302;52.322;5.926;2023-03-01T02:18:17;5.53;;;3.17;;
69188;SDS011;56302;52.322;5.926;2023-03-01T02:23:33;7.90;;;3.70;;
69188;SDS011;56302;52.322;5.926;2023-03-01T02:28:45;8.43;;;3.50;;
69188;SDS011;56302;52.322;5.926;2023-03-01T02:31:14;6.78;;;3.22;;
69188;SDS011;56302;52.322;5.926;2023-03-01T02:34:00;5.60;;;3.10;;
69188;SDS011;56302;52.322;5.926;2023-03-01T02:36:30;5.53;;;2.90;;
69188;SDS011;56302;52.322;5.926;2023-03-01T02:38:59;6.43;;;3.60;;
69188;SDS011;56302;52.322;5.926;2023-03-01T02:41:27;7.13;;;3.72;;
69188;SDS011;56302;52.322;5.926;2023-03-01T02:43:55;6.30;;;3.33;;
69188;SDS011;56302;52.322;5.926;2023-03-01T02:46:22;5.47;;;3.10;;
69188;SDS011;56302;52.322;5.926;2023-03-01T02:48:50;5.82;;;2.70;;
69188;SDS011;56302;52.322;5.926;2023-03-01T02:54:17;8.63;;;3.97;;
69188;SDS011;56302;52.322;5.926;2023-03-01T02:57:03;5.93;;;3.20;;
69188;SDS011;56302;52.322;5.926;2023-03-01T02:59:30;6.10;;;3.53;;
69188;SDS011;56302;52.322;5.926;2023-03-01T03:02:04;6.50;;;3.60;;
69188;SDS011;56302;52.322;5.926;2023-03-01T03:04:30;6.07;;;3.35;;
69188;SDS011;56302;52.322;5.926;2023-03-01T03:06:55;6.23;;;3.23;;
69188;SDS011;56302;52.322;5.926;2023-03-01T03:09:21;8.53;;;3.53;;
69188;SDS011;56302;52.322;5.926;2023-03-01T03:11:47;6.50;;;3.30;;
69188;SDS011;56302;52.322;5.926;2023-03-01T03:14:13;7.67;;;3.70;;
69188;SDS011;56302;52.322;5.926;2023-03-01T03:16:41;7.90;;;4.05;;
69188;SDS011;56302;52.322;5.926;2023-03-01T03:19:11;9.68;;;3.90;;
69188;SDS011;56302;52.322;5.926;2023-03-01T03:21:36;6.40;;;3.53;;
69188;SDS011;56302;52.322;5.926;2023-03-01T03:24:02;6.25;;;3.60;;
69188;SDS011;56302;52.322;5.926;2023-03-01T03:26:28;6.95;;;3.47;;
69188;SDS011;56302;52.322;5.926;2023-03-01T03:28:54;8.50;;;4.38;;
69188;SDS011;56302;52.322;5.926;2023-03-01T03:31:20;8.60;;;3.57;;
69188;SDS011;56302;52.322;5.926;2023-03-01T03:33:45;7.23;;;3.60;;
69188;SDS011;56302;52.322;5.926;2023-03-01T03:36:15;7.00;;;3.75;;
69188;SDS011;56302;52.322;5.926;2023-03-01T03:38:42;7.00;;;3.43;;
69188;SDS011;56302;52.322;5.926;2023-03-01T03:41:09;7.03;;;3.50;;
69188;SDS011;56302;52.322;5.926;2023-03-01T03:43:35;7.65;;;3.88;;
69188;SDS011;56302;52.322;5.926;2023-03-01T03:46:02;6.17;;;3.53;;
69188;SDS011;56302;52.322;5.926;2023-03-01T03:48:35;7.85;;;3.58;;
69188;SDS011;56302;52.322;5.926;2023-03-01T03:51:02;6.78;;;3.97;;
69188;SDS011;56302;52.322;5.926;2023-03-01T03:53:30;7.43;;;3.80;;
69188;SDS011;56302;52.322;5.926;2023-03-01T03:55:56;8.70;;;4.13;;
69188;SDS011;56302;52.322;5.926;2023-03-01T03:58:23;7.20;;;4.37;;
69188;SDS011;56302;52.322;5.926;2023-03-01T04:00:51;7.13;;;3.67;;
69188;SDS011;56302;52.322;5.926;2023-03-01T04:03:19;8.18;;;4.18;;
69188;SDS011;56302;52.322;5.926;2023-03-01T04:05:45;10.80;;;3.67;;
69188;SDS011;56302;52.322;5.926;2023-03-01T04:08:11;7.65;;;4.13;;
69188;SDS011;56302;52.322;5.926;2023-03-01T04:10:38;7.70;;;4.00;;
69188;SDS011;56302;52.322;5.926;2023-03-01T04:13:14;9.05;;;4.05;;
69188;SDS011;56302;52.322;5.926;2023-03-01T04:15:50;9.23;;;3.92;;
69188;SDS011;56302;52.322;5.926;2023-03-01T04:18:17;8.77;;;4.07;;
69188;SDS011;56302;52.322;5.926;2023-03-01T04:20:47;11.18;;;4.80;;
69188;SDS011;56302;52.322;5.926;2023-03-01T04:23:16;8.93;;;4.07;;
69188;SDS011;56302;52.322;5.926;2023-03-01T04:25:49;8.07;;;3.95;;
69188;SDS011;56302;52.322;5.926;2023-03-01T04:28:32;9.45;;;4.28;;
69188;SDS011;56302;52.322;5.926;2023-03-01T04:31:02;7.82;;;4.15;;
69188;SDS011;56302;52.322;5.926;2023-03-01T04:33:37;7.83;;;4.07;;
69188;SDS011;56302;52.322;5.926;2023-03-01T04:36:04;6.80;;;3.67;;
69188;SDS011;56302;52.322;5.926;2023-03-01T04:38:31;6.80;;;3.90;;
69188;SDS011;56302;52.322;5.926;2023-03-01T04:40:57;7.53;;;3.80;;
69188;SDS011;56302;52.322;5.926;2023-03-01T04:43:22;8.27;;;4.17;;
69188;SDS011;56302;52.322;5.926;2023-03-01T04:45:48;10.97;;;4.10;;
69188;SDS011;56302;52.322;5.926;2023-03-01T04:48:13;8.33;;;4.13;;
69188;SDS011;56302;52.322;5.926;2023-03-01T04:50:39;7.10;;;4.22;;
69188;SDS011;56302;52.322;5.926;2023-03-01T04:53:04;8.23;;;4.07;;
69188;SDS011;56302;52.322;5.926;2023-03-01T04:55:30;8.57;;;3.83;;
69188;SDS011;56302;52.322;5.926;2023-03-01T04:57:56;7.50;;;3.97;;
69188;SDS011;56302;52.322;5.926;2023-03-01T05:00:22;6.90;;;3.70;;
69188;SDS011;56302;52.322;5.926;2023-03-01T05:02:58;7.78;;;4.00;;
69188;SDS011;56302;52.322;5.926;2023-03-01T05:05:30;6.63;;;3.42;;
69188;SDS011;56302;52.322;5.926;2023-03-01T05:08:02;6.57;;;3.45;;
69188;SDS011;56302;52.322;5.926;2023-03-01T05:10:30;6.73;;;3.27;;
69188;SDS011;56302;52.322;5.926;2023-03-01T05:12:57;6.68;;;3.67;;
69188;SDS011;56302;52.322;5.926;2023-03-01T05:15:27;7.93;;;3.72;;
69188;SDS011;56302;52.322;5.926;2023-03-01T05:17:55;7.28;;;3.50;;
69188;SDS011;56302;52.322;5.926;2023-03-01T05:20:24;6.60;;;3.55;;
69188;SDS011;56302;52.322;5.926;2023-03-01T05:22:51;8.27;;;3.70;;
69188;SDS011;56302;52.322;5.926;2023-03-01T05:25:19;8.73;;;3.88;;
69188;SDS011;56302;52.322;5.926;2023-03-01T05:27:46;8.27;;;3.70;;
69188;SDS011;56302;52.322;5.926;2023-03-01T05:30:13;7.78;;;3.45;;
69188;SDS011;56302;52.322;5.926;2023-03-01T05:32:40;7.80;;;3.97;;
69188;SDS011;56302;52.322;5.926;2023-03-01T05:35:08;7.37;;;3.53;;
69188;SDS011;56302;52.322;5.926;2023-03-01T05:37:34;8.45;;;3.67;;
69188;SDS011;56302;52.322;5.926;2023-03-01T05:40:00;7.82;;;3.80;;
69188;SDS011;56302;52.322;5.926;2023-03-01T05:42:26;7.28;;;3.95;;
69188;SDS011;56302;52.322;5.926;2023-03-01T05:44:51;7.93;;;3.70;;
69188;SDS011;56302;52.322;5.926;2023-03-01T05:47:17;7.60;;;3.87;;
69188;SDS011;56302;52.322;5.926;2023-03-01T05:49:42;9.43;;;3.50;;
69188;SDS011;56302;52.322;5.926;2023-03-01T05:52:08;8.00;;;3.60;;
69188;SDS011;56302;52.322;5.926;2023-03-01T05:54:33;8.73;;;3.78;;
69188;SDS011;56302;52.322;5.926;2023-03-01T05:56:59;7.13;;;4.03;;
69188;SDS011;56302;52.322;5.926;2023-03-01T05:59:24;8.03;;;3.63;;
69188;SDS011;56302;52.322;5.926;2023-03-01T06:01:50;7.93;;;3.30;;
69188;SDS011;56302;52.322;5.926;2023-03-01T06:04:15;8.85;;;4.28;;
69188;SDS011;56302;52.322;5.926;2023-03-01T06:06:41;9.40;;;4.63;;
69188;SDS011;56302;52.322;5.926;2023-03-01T06:09:07;6.20;;;3.67;;
69188;SDS011;56302;52.322;5.926;2023-03-01T06:11:34;9.68;;;4.53;;
69188;SDS011;56302;52.322;5.926;2023-03-01T06:14:00;9.73;;;3.90;;
69188;SDS011;56302;52.322;5.926;2023-03-01T06:16:26;11.53;;;4.33;;
69188;SDS011;56302;52.322;5.926;2023-03-01T06:18:51;9.80;;;4.60;;
69188;SDS011;56302;52.322;5.926;2023-03-01T06:21:17;10.93;;;4.70;;
69188;SDS011;56302;52.322;5.926;2023-03-01T06:23:42;10.73;;;4.60;;
69188;SDS011;56302;52.322;5.926;2023-03-01T06:26:08;10.87;;;4.63;;
69188;SDS011;56302;52.322;5.926;2023-03-01T06:28:34;10.40;;;4.75;;
69188;SDS011;56302;52.322;5.926;2023-03-01T06:31:00;11.10;;;4.70;;
69188;SDS011;56302;52.322;5.926;2023-03-01T06:33:26;9.83;;;5.00;;
69188;SDS011;56302;52.322;5.926;2023-03-01T06:35:54;10.18;;;4.82;;
69188;SDS011;56302;52.322;5.926;2023-03-01T06:38:20;10.60;;;4.95;;
69188;SDS011;56302;52.322;5.926;2023-03-01T06:40:51;9.37;;;4.30;;
69188;SDS011;56302;52.322;5.926;2023-03-01T06:43:18;9.95;;;4.68;;
69188;SDS011;56302;52.322;5.926;2023-03-01T06:45:44;12.13;;;5.00;;
69188;SDS011;56302;52.322;5.926;2023-03-01T06:48:10;10.45;;;5.13;;
69188;SDS011;56302;52.322;5.926;2023-03-01T06:50:36;13.80;;;5.73;;
69188;SDS011;56302;52.322;5.926;2023-03-01T06:53:02;9.07;;;4.90;;
69188;SDS011;56302;52.322;5.926;2023-03-01T06:55:28;9.75;;;4.88;;
69188;SDS011;56302;52.322;5.926;2023-03-01T06:57:57;11.95;;;5.53;;
69188;SDS011;56302;52.322;5.926;2023-03-01T07:00:25;13.65;;;6.00;;
69188;SDS011;56302;52.322;5.926;2023-03-01T07:02:51;10.88;;;5.60;;
69188;SDS011;56302;52.322;5.926;2023-03-01T07:05:16;11.40;;;5.70;;
69188;SDS011;56302;52.322;5.926;2023-03-01T07:07:42;13.68;;;5.97;;
69188;SDS011;56302;52.322;5.926;2023-03-01T07:10:08;11.90;;;5.53;;
69188;SDS011;56302;52.322;5.926;2023-03-01T07:12:34;12.80;;;6.03;;
69188;SDS011;56302;52.322;5.926;2023-03-01T07:15:00;11.90;;;5.88;;
69188;SDS011;56302;52.322;5.926;2023-03-01T07:17:25;12.82;;;6.15;;
69188;SDS011;56302;52.322;5.926;2023-03-01T07:19:51;12.30;;;6.10;;
69188;SDS011;56302;52.322;5.926;2023-03-01T07:22:16;13.33;;;6.53;;
69188;SDS011;56302;52.322;5.926;2023-03-01T07:24:42;12.70;;;6.47;;
69188;SDS011;56302;52.322;5.926;2023-03-01T07:27:08;15.57;;;6.30;;
69188;SDS011;56302;52.322;5.926;2023-03-01T07:29:34;13.27;;;6.93;;
69188;SDS011;56302;52.322;5.926;2023-03-01T07:32:01;13.23;;;6.72;;
69188;SDS011;56302;52.322;5.926;2023-03-01T07:34:27;13.68;;;6.80;;
69188;SDS011;56302;52.322;5.926;2023-03-01T07:36:53;14.23;;;6.87;;
69188;SDS011;56302;52.322;5.926;2023-03-01T07:39:18;16.27;;;6.70;;
69188;SDS011;56302;52.322;5.926;2023-03-01T07:41:44;15.25;;;7.63;;
69188;SDS011;56302;52.322;5.926;2023-03-01T07:44:09;14.47;;;7.20;;
69188;SDS011;56302;52.322;5.926;2023-03-01T07:46:35;14.38;;;6.85;;
69188;SDS011;56302;52.322;5.926;2023-03-01T07:49:01;14.60;;;7.17;;
69188;SDS011;56302;52.322;5.926;2023-03-01T07:51:26;16.57;;;8.10;;
69188;SDS011;56302;52.322;5.926;2023-03-01T07:53:52;15.43;;;8.13;;
69188;SDS011;56302;52.322;5.926;2023-03-01T07:56:17;14.60;;;7.68;;
69188;SDS011;56302;52.322;5.926;2023-03-01T07:58:44;23.17;;;9.27;;
69188;SDS011;56302;52.322;5.926;2023-03-01T08:01:14;13.77;;;7.67;;
69188;SDS011;56302;52.322;5.926;2023-03-01T08:03:41;15.60;;;8.00;;
69188;SDS011;56302;52.322;5.926;2023-03-01T08:06:08;18.15;;;8.57;;
69188;SDS011;56302;52.322;5.926;2023-03-01T08:08:35;15.05;;;7.43;;
69188;SDS011;56302;52.322;5.926;2023-03-01T08:11:01;17.73;;;7.75;;
69188;SDS011;56302;52.322;5.926;2023-03-01T08:13:29;18.63;;;9.50;;
69188;SDS011;56302;52.322;5.926;2023-03-01T08:15:54;19.10;;;9.75;;
69188;SDS011;56302;52.322;5.926;2023-03-01T08:18:27;21.85;;;9.90;;
69188;SDS011;56302;52.322;5.926;2023-03-01T08:20:52;19.23;;;10.10;;
69188;SDS011;56302;52.322;5.926;2023-03-01T08:23:18;22.23;;;11.17;;
69188;SDS011;56302;52.322;5.926;2023-03-01T08:25:43;18.37;;;10.87;;
69188;SDS011;56302;52.322;5.926;2023-03-01T08:28:09;19.80;;;11.60;;
69188;SDS011;56302;52.322;5.926;2023-03-01T08:30:34;19.87;;;10.50;;
69188;SDS011;56302;52.322;5.926;2023-03-01T08:33:00;30.27;;;11.07;;
69188;SDS011;56302;52.322;5.926;2023-03-01T08:35:25;18.95;;;10.95;;
69188;SDS011;56302;52.322;5.926;2023-03-01T08:37:51;20.20;;;11.13;;
69188;SDS011;56302;52.322;5.926;2023-03-01T08:40:16;19.60;;;10.17;;
69188;SDS011;56302;52.322;5.926;2023-03-01T08:42:42;23.25;;;10.95;;
69188;SDS011;56302;52.322;5.926;2023-03-01T08:45:09;18.73;;;9.23;;
69188;SDS011;56302;52.322;5.926;2023-03-01T08:47:35;17.25;;;9.70;;
69188;SDS011;56302;52.322;5.926;2023-03-01T08:50:01;14.00;;;9.10;;
69188;SDS011;56302;52.322;5.926;2023-03-01T08:52:27;16.77;;;8.52;;
69188;SDS011;56302;52.322;5.926;2023-03-01T08:54:52;13.65;;;8.35;;
69188;SDS011;56302;52.322;5.926;2023-03-01T08:57:18;12.60;;;7.70;;
69188;SDS011;56302;52.322;5.926;2023-03-01T08:59:43;15.17;;;7.50;;
69188;SDS011;56302;52.322;5.926;2023-03-01T09:02:11;16.17;;;7.43;;
69188;SDS011;56302;52.322;5.926;2023-03-01T09:04:38;11.83;;;6.43;;
69188;SDS011;56302;52.322;5.926;2023-03-01T09:07:04;16.90;;;7.82;;
69188;SDS011;56302;52.322;5.926;2023-03-01T09:09:30;11.75;;;7.00;;
69188;SDS011;56302;52.322;5.926;2023-03-01T09:11:56;12.27;;;6.97;;
69188;SDS011;56302;52.322;5.926;2023-03-01T09:14:21;13.90;;;7.30;;
69188;SDS011;56302;52.322;5.926;2023-03-01T09:16:47;12.30;;;7.23;;
69188;SDS011;56302;52.322;5.926;2023-03-01T09:19:13;10.07;;;5.80;;
69188;SDS011;56302;52.322;5.926;2023-03-01T09:21:38;11.00;;;5.95;;
69188;SDS011;56302;52.322;5.926;2023-03-01T09:24:04;9.95;;;6.00;;
69188;SDS011;56302;52.322;5.926;2023-03-01T09:26:30;11.93;;;6.33;;
69188;SDS011;56302;52.322;5.926;2023-03-01T09:28:56;11.07;;;6.07;;
69188;SDS011;56302;52.322;5.926;2023-03-01T09:31:22;9.17;;;4.80;;
69188;SDS011;56302;52.322;5.926;2023-03-01T09:33:50;10.75;;;6.45;;
69188;SDS011;56302;52.322;5.926;2023-03-01T09:36:18;11.38;;;5.93;;
69188;SDS011;56302;52.322;5.926;2023-03-01T09:38:46;10.55;;;5.95;;
69188;SDS011;56302;52.322;5.926;2023-03-01T09:43:56;11.60;;;4.93;;
69188;SDS011;56302;52.322;5.926;2023-03-01T09:46:29;12.82;;;5.53;;
69188;SDS011;56302;52.322;5.926;2023-03-01T09:49:02;8.65;;;5.03;;
69188;SDS011;56302;52.322;5.926;2023-03-01T09:51:34;8.82;;;4.93;;
69188;SDS011;56302;52.322;5.926;2023-03-01T09:54:02;11.03;;;5.03;;
69188;SDS011;56302;52.322;5.926;2023-03-01T09:56:39;10.93;;;5.53;;
69188;SDS011;56302;52.322;5.926;2023-03-01T09:59:14;7.68;;;3.60;;
69188;SDS011;56302;52.322;5.926;2023-03-01T10:04:51;12.90;;;4.10;;
69188;SDS011;56302;52.322;5.926;2023-03-01T10:10:39;6.53;;;3.42;;
69188;SDS011;56302;52.322;5.926;2023-03-01T10:13:17;10.68;;;4.65;;
69188;SDS011;56302;52.322;5.926;2023-03-01T10:15:51;7.97;;;4.15;;
69188;SDS011;56302;52.322;5.926;2023-03-01T10:18:27;11.57;;;4.65;;
69188;SDS011;56302;52.322;5.926;2023-03-01T10:23:25;7.63;;;3.38;;
69188;SDS011;56302;52.322;5.926;2023-03-01T10:29:07;9.95;;;3.83;;
69188;SDS011;56302;52.322;5.926;2023-03-01T10:31:38;8.82;;;3.63;;
69188;SDS011;56302;52.322;5.926;2023-03-01T10:34:28;7.27;;;3.87;;
69188;SDS011;56302;52.322;5.926;2023-03-01T10:37:18;6.00;;;3.90;;
69188;SDS011;56302;52.322;5.926;2023-03-01T10:40:08;6.22;;;3.40;;
69188;SDS011;56302;52.322;5.926;2023-03-01T10:42:38;7.05;;;3.58;;
69188;SDS011;56302;52.322;5.926;2023-03-01T10:45:15;6.90;;;3.40;;
69188;SDS011;56302;52.322;5.926;2023-03-01T10:50:41;7.18;;;3.20;;
69188;SDS011;56302;52.322;5.926;2023-03-01T10:53:28;8.25;;;3.55;;
69188;SDS011;56302;52.322;5.926;2023-03-01T10:55:57;9.23;;;3.22;;
69188;SDS011;56302;52.322;5.926;2023-03-01T10:58:30;6.28;;;3.17;;
69188;SDS011;56302;52.322;5.926;2023-03-01T11:00:57;6.80;;;2.67;;
69188;SDS011;56302;52.322;5.926;2023-03-01T11:03:43;5.65;;;2.88;;
69188;SDS011;56302;52.322;5.926;2023-03-01T11:16:40;6.90;;;3.22;;
69188;SDS011;56302;52.322;5.926;2023-03-01T11:21:35;8.05;;;2.80;;
69188;SDS011;56302;52.322;5.926;2023-03-01T11:24:03;6.37;;;3.17;;
69188;SDS011;56302;52.322;5.926;2023-03-01T11:26:31;7.30;;;3.40;;
69188;SDS011;56302;52.322;5.926;2023-03-01T11:29:03;6.32;;;3.58;;
69188;SDS011;56302;52.322;5.926;2023-03-01T11:31:32;7.93;;;4.10;;
69188;SDS011;56302;52.322;5.926;2023-03-01T11:34:08;8.60;;;3.63;;
69188;SDS011;56302;52.322;5.926;2023-03-01T11:36:51;9.93;;;3.50;;
69188;SDS011;56302;52.322;5.926;2023-03-01T11:39:42;6.22;;;2.47;;
69188;SDS011;56302;52.322;5.926;2023-03-01T11:42:18;7.70;;;3.35;;
69188;SDS011;56302;52.322;5.926;2023-03-01T11:44:50;6.43;;;2.90;;
69188;SDS011;56302;52.322;5.926;2023-03-01T12:00:56;5.63;;;2.80;;
69188;SDS011;56302;52.322;5.926;2023-03-01T12:08:45;7.03;;;2.93;;
69188;SDS011;56302;52.322;5.926;2023-03-01T12:14:17;5.90;;;2.72;;
69188;SDS011;56302;52.322;5.926;2023-03-01T12:18:06;6.07;;;2.45;;
69188;SDS011;56302;52.322;5.926;2023-03-01T12:22:44;6.27;;;3.10;;
69188;SDS011;56302;52.322;5.926;2023-03-01T12:30:54;6.25;;;2.75;;
69188;SDS011;56302;52.322;5.926;2023-03-01T12:40:01;5.32;;;2.50;;
69188;SDS011;56302;52.322;5.926;2023-03-01T12:42:35;5.93;;;2.70;;
69188;SDS011;56302;52.322;5.926;2023-03-01T12:48:17;6.53;;;3.03;;
69188;SDS011;56302;52.322;5.926;2023-03-01T12:50:47;6.27;;;2.87;;
69188;SDS011;56302;52.322;5.926;2023-03-01T12:53:21;5.78;;;3.03;;
69188;SDS011;56302;52.322;5.926;2023-03-01T12:55:53;7.88;;;2.55;;
69188;SDS011;56302;52.322;5.926;2023-03-01T12:58:28;6.05;;;3.03;;
69188;SDS011;56302;52.322;5.926;2023-03-01T13:01:15;7.32;;;3.70;;
69188;SDS011;56302;52.322;5.926;2023-03-01T13:06:15;10.82;;;3.20;;
69188;SDS011;56302;52.322;5.926;2023-03-01T13:08:49;7.37;;;3.10;;
69188;SDS011;56302;52.322;5.926;2023-03-01T13:11:25;4.57;;;2.65;;
69188;SDS011;56302;52.322;5.926;2023-03-01T13:13:51;6.45;;;3.53;;
69188;SDS011;56302;52.322;5.926;2023-03-01T13:16:21;5.22;;;2.97;;
69188;SDS011;56302;52.322;5.926;2023-03-01T13:19:05;7.32;;;3.58;;
69188;SDS011;56302;52.322;5.926;2023-03-01T13:21:39;8.70;;;3.60;;
69188;SDS011;56302;52.322;5.926;2023-03-01T13:24:04;6.30;;;2.95;;
69188;SDS011;56302;52.322;5.926;2023-03-01T13:34:46;4.95;;;2.50;;
69188;SDS011;56302;52.322;5.926;2023-03-01T13:37:23;7.30;;;3.40;;
69188;SDS011;56302;52.322;5.926;2023-03-01T13:39:54;7.97;;;3.30;;
69188;SDS011;56302;52.322;5.926;2023-03-01T13:45:19;7.70;;;3.35;;
69188;SDS011;56302;52.322;5.926;2023-03-01T13:47:54;7.88;;;3.40;;
69188;SDS011;56302;52.322;5.926;2023-03-01T13:50:27;7.28;;;3.75;;
69188;SDS011;56302;52.322;5.926;2023-03-01T13:52:59;6.73;;;3.43;;
69188;SDS011;56302;52.322;5.926;2023-03-01T13:55:30;7.57;;;3.13;;
69188;SDS011;56302;52.322;5.926;2023-03-01T13:58:21;7.35;;;3.25;;
69188;SDS011;56302;52.322;5.926;2023-03-01T14:01:18;6.25;;;3.50;;
69188;SDS011;56302;52.322;5.926;2023-03-01T14:03:45;6.50;;;3.72;;
69188;SDS011;56302;52.322;5.926;2023-03-01T14:06:12;5.60;;;2.77;;
69188;SDS011;56302;52.322;5.926;2023-03-01T14:08:42;7.05;;;3.13;;
69188;SDS011;56302;52.322;5.926;2023-03-01T14:19:31;7.95;;;3.70;;
69188;SDS011;56302;52.322;5.926;2023-03-01T14:21:58;8.27;;;3.75;;
69188;SDS011;56302;52.322;5.926;2023-03-01T14:24:47;9.30;;;3.65;;
69188;SDS011;56302;52.322;5.926;2023-03-01T14:27:15;8.20;;;3.20;;
69188;SDS011;56302;52.322;5.926;2023-03-01T14:29:42;7.65;;;3.55;;
69188;SDS011;56302;52.322;5.926;2023-03-01T14:34:46;8.55;;;3.22;;
69188;SDS011;56302;52.322;5.926;2023-03-01T14:37:25;6.85;;;3.30;;
69188;SDS011;56302;52.322;5.926;2023-03-01T14:39:52;8.17;;;3.20;;
69188;SDS011;56302;52.322;5.926;2023-03-01T14:42:18;6.05;;;2.78;;
69188;SDS011;56302;52.322;5.926;2023-03-01T14:44:46;6.57;;;3.35;;
69188;SDS011;56302;52.322;5.926;2023-03-01T14:47:23;7.30;;;3.33;;
69188;SDS011;56302;52.322;5.926;2023-03-01T14:49:55;6.55;;;3.53;;
69188;SDS011;56302;52.322;5.926;2023-03-01T14:52:46;6.73;;;2.87;;
69188;SDS011;56302;52.322;5.926;2023-03-01T14:55:18;6.50;;;2.97;;
69188;SDS011;56302;52.322;5.926;2023-03-01T14:57:51;8.45;;;3.65;;
69188;SDS011;56302;52.322;5.926;2023-03-01T15:00:27;6.80;;;2.95;;
69188;SDS011;56302;52.322;5.926;2023-03-01T15:02:55;4.72;;;2.50;;
69188;SDS011;56302;52.322;5.926;2023-03-01T15:05:27;7.13;;;2.50;;
69188;SDS011;56302;52.322;5.926;2023-03-01T15:07:58;7.00;;;3.03;;
69188;SDS011;56302;52.322;5.926;2023-03-01T15:10:33;8.40;;;3.50;;
69188;SDS011;56302;52.322;5.926;2023-03-01T15:13:19;5.68;;;3.00;;
69188;SDS011;56302;52.322;5.926;2023-03-01T15:15:47;5.68;;;3.08;;
69188;SDS011;56302;52.322;5.926;2023-03-01T15:20:42;5.70;;;2.92;;
69188;SDS011;56302;52.322;5.926;2023-03-01T15:23:27;8.18;;;3.00;;
69188;SDS011;56302;52.322;5.926;2023-03-01T15:25:55;5.97;;;2.45;;
69188;SDS011;56302;52.322;5.926;2023-03-01T15:28:25;7.37;;;3.40;;
69188;SDS011;56302;52.322;5.926;2023-03-01T15:30:55;6.80;;;3.42;;
69188;SDS011;56302;52.322;5.926;2023-03-01T15:33:31;6.57;;;3.03;;
69188;SDS011;56302;52.322;5.926;2023-03-01T15:35:59;8.95;;;3.50;;
69188;SDS011;56302;52.322;5.926;2023-03-01T15:38:30;7.10;;;2.85;;
69188;SDS011;56302;52.322;5.926;2023-03-01T15:41:04;7.70;;;3.30;;
69188;SDS011;56302;52.322;5.926;2023-03-01T15:43:46;6.75;;;3.15;;
69188;SDS011;56302;52.322;5.926;2023-03-01T15:46:19;9.73;;;2.60;;
69188;SDS011;56302;52.322;5.926;2023-03-01T15:48:48;6.47;;;2.80;;
69188;SDS011;56302;52.322;5.926;2023-03-01T15:51:17;7.55;;;3.58;;
69188;SDS011;56302;52.322;5.926;2023-03-01T15:53:51;8.50;;;3.65;;
69188;SDS011;56302;52.322;5.926;2023-03-01T15:56:18;8.18;;;2.90;;
69188;SDS011;56302;52.322;5.926;2023-03-01T15:58:44;8.88;;;3.00;;
69188;SDS011;56302;52.322;5.926;2023-03-01T16:01:16;7.43;;;3.17;;
69188;SDS011;56302;52.322;5.926;2023-03-01T16:03:42;5.85;;;2.92;;
69188;SDS011;56302;52.322;5.926;2023-03-01T16:06:12;9.18;;;2.97;;
69188;SDS011;56302;52.322;5.926;2023-03-01T16:08:38;8.03;;;3.20;;
69188;SDS011;56302;52.322;5.926;2023-03-01T16:11:04;7.78;;;3.35;;
69188;SDS011;56302;52.322;5.926;2023-03-01T16:13:34;6.18;;;3.05;;
69188;SDS011;56302;52.322;5.926;2023-03-01T16:16:00;6.67;;;3.00;;
69188;SDS011;56302;52.322;5.926;2023-03-01T16:18:25;6.65;;;3.28;;
69188;SDS011;56302;52.322;5.926;2023-03-01T16:20:51;7.07;;;2.83;;
69188;SDS011;56302;52.322;5.926;2023-03-01T16:23:17;7.00;;;2.90;;
69188;SDS011;56302;52.322;5.926;2023-03-01T16:25:43;6.53;;;3.43;;
69188;SDS011;56302;52.322;5.926;2023-03-01T16:28:08;8.60;;;3.23;;
69188;SDS011;56302;52.322;5.926;2023-03-01T16:30:35;7.90;;;3.72;;
69188;SDS011;56302;52.322;5.926;2023-03-01T16:33:01;6.38;;;3.10;;
69188;SDS011;56302;52.322;5.926;2023-03-01T16:35:27;6.83;;;2.83;;
69188;SDS011;56302;52.322;5.926;2023-03-01T16:37:53;8.82;;;3.50;;
69188;SDS011;56302;52.322;5.926;2023-03-01T16:42:47;7.63;;;3.35;;
69188;SDS011;56302;52.322;5.926;2023-03-01T16:45:13;8.27;;;2.90;;